Time;durP1;ratioP1;P1;durP2;ratioP2;P2;SDS_P1;SDS_P2;PMS_P1;PMS_P2;Temp;Humidity;BMP_temperature;BMP_pressure;BME280_temperature;BME280_humidity;BME280_pressure;Samples;Min_cycle;Max_cycle;Signal;HPM_P1;HPM_P2
2021/10/04 00:00:25;;;;;;;2.80;1.38;;;11.40;99.90;;;;;;4986481;28;20679;-75
2021/10/04 00:02:51;;;;;;;0.60;0.60;;;11.40;99.90;;;;;;4982854;28;20230;-75
2021/10/04 00:05:17;;;;;;;0.50;0.50;;;11.30;99.90;;;;;;4991585;28;20238;-75
2021/10/04 00:07:43;;;;;;;0.50;0.50;;;11.30;99.90;;;;;;4993238;28;20215;-76
2021/10/04 00:10:11;;;;;;;0.50;0.50;;;11.20;99.90;;;;;;4994332;28;20621;-75
2021/10/04 00:12:37;;;;;;;0.40;0.40;;;11.20;99.90;;;;;;4994206;28;20681;-76
2021/10/04 00:15:08;;;;;;;0.50;0.50;;;11.20;99.90;;;;;;4993004;28;20261;-76
2021/10/04 00:17:34;;;;;;;0.50;0.50;;;11.10;99.90;;;;;;4994585;28;20196;-76
2021/10/04 00:19:59;;;;;;;0.40;0.40;;;11.10;99.90;;;;;;4994266;28;20207;-75
2021/10/04 00:22:25;;;;;;;0.50;0.50;;;11.00;99.90;;;;;;4994062;28;20211;-75
2021/10/04 00:24:51;;;;;;;0.50;0.50;;;11.00;99.90;;;;;;4994485;28;20203;-75
2021/10/04 00:27:16;;;;;;;0.50;0.50;;;10.90;99.90;;;;;;4992968;28;20215;-76
2021/10/04 00:29:42;;;;;;;0.50;0.50;;;10.90;99.90;;;;;;4991273;28;20720;-76
2021/10/04 00:32:08;;;;;;;0.40;0.40;;;10.90;99.90;;;;;;4993208;28;20206;-76
2021/10/04 00:34:33;;;;;;;0.40;0.40;;;10.90;99.90;;;;;;4992263;28;20302;-76
2021/10/04 00:36:59;;;;;;;0.50;0.50;;;10.90;99.90;;;;;;4993782;28;20211;-76
2021/10/04 00:39:25;;;;;;;0.50;0.50;;;10.90;99.90;;;;;;4992108;28;20211;-75
2021/10/04 00:41:51;;;;;;;0.40;0.40;;;10.90;99.90;;;;;;4992374;28;20203;-76
2021/10/04 00:44:17;;;;;;;0.60;0.60;;;10.90;99.90;;;;;;5008831;28;20306;-76
2021/10/04 00:46:42;;;;;;;0.50;0.50;;;10.90;99.90;;;;;;4993868;28;20211;-76
2021/10/04 00:49:08;;;;;;;0.60;0.60;;;10.90;99.90;;;;;;4992274;28;20231;-76
2021/10/04 00:51:34;;;;;;;0.80;0.80;;;10.90;99.90;;;;;;4991984;28;20210;-76
2021/10/04 00:54:00;;;;;;;0.60;0.60;;;10.90;99.90;;;;;;4993531;28;20315;-76
2021/10/04 00:56:25;;;;;;;0.50;0.50;;;10.90;99.90;;;;;;4993363;28;20295;-76
2021/10/04 00:58:51;;;;;;;0.50;0.50;;;10.90;99.90;;;;;;4979187;28;20219;-76
2021/10/04 01:01:18;;;;;;;0.50;0.50;;;10.90;99.90;;;;;;4993735;28;20705;-76
2021/10/04 01:03:44;;;;;;;0.50;0.50;;;10.90;99.90;;;;;;4996580;28;20203;-76
2021/10/04 01:06:10;;;;;;;0.50;0.50;;;10.90;99.90;;;;;;4994421;28;20223;-77
2021/10/04 01:08:36;;;;;;;0.68;0.68;;;10.90;99.90;;;;;;4992989;28;20203;-76
2021/10/04 01:11:02;;;;;;;0.60;0.60;;;10.80;99.90;;;;;;4992944;28;20279;-76
2021/10/04 01:13:28;;;;;;;0.40;0.40;;;10.80;99.90;;;;;;4992969;28;20208;-76
2021/10/04 01:15:55;;;;;;;1.95;0.75;;;10.80;99.90;;;;;;4991870;28;20234;-76
2021/10/04 01:18:22;;;;;;;0.70;0.70;;;10.70;99.90;;;;;;4991617;28;20582;-76
2021/10/04 01:20:48;;;;;;;0.50;0.50;;;10.70;99.90;;;;;;4993534;28;20272;-76
2021/10/04 01:23:13;;;;;;;0.60;0.60;;;10.60;99.90;;;;;;4992292;28;20203;-76
2021/10/04 01:25:39;;;;;;;0.50;0.50;;;10.70;99.90;;;;;;4991559;28;20675;-76
2021/10/04 01:28:05;;;;;;;0.60;0.60;;;10.70;99.90;;;;;;4991491;28;20210;-76
2021/10/04 01:30:32;;;;;;;0.50;0.50;;;10.70;99.90;;;;;;4991525;28;20207;-76
2021/10/04 01:32:58;;;;;;;0.50;0.50;;;10.70;99.90;;;;;;4992763;28;20204;-77
2021/10/04 01:35:25;;;;;;;0.50;0.50;;;10.70;99.90;;;;;;4991272;28;20215;-76
2021/10/04 01:37:51;;;;;;;0.40;0.40;;;10.70;99.90;;;;;;4990593;28;20203;-76
2021/10/04 01:40:18;;;;;;;0.50;0.50;;;10.80;99.90;;;;;;4990068;28;20295;-76
2021/10/04 01:42:44;;;;;;;0.60;0.60;;;10.70;99.90;;;;;;4992804;28;20203;-76
2021/10/04 01:45:13;;;;;;;0.50;0.50;;;10.70;99.90;;;;;;4994149;28;20210;-77
2021/10/04 01:47:40;;;;;;;0.68;0.68;;;10.60;99.90;;;;;;4993012;28;20223;-76
2021/10/04 01:50:08;;;;;;;0.50;0.50;;;10.60;99.90;;;;;;4991818;28;20208;-76
2021/10/04 01:52:34;;;;;;;0.60;0.60;;;10.50;99.90;;;;;;4991185;28;20343;-76
2021/10/04 01:55:00;;;;;;;0.60;0.60;;;10.50;99.90;;;;;;4974759;28;20267;-76
2021/10/04 01:57:27;;;;;;;0.70;0.70;;;10.60;99.90;;;;;;4998631;28;20192;-76
2021/10/04 01:59:53;;;;;;;0.52;0.52;;;10.50;99.90;;;;;;5007496;28;20599;-76
2021/10/04 02:02:19;;;;;;;0.60;0.60;;;10.50;99.90;;;;;;5006155;28;20269;-76
2021/10/04 02:04:45;;;;;;;0.60;0.60;;;10.60;99.90;;;;;;5010265;28;20214;-77
2021/10/04 02:07:11;;;;;;;0.60;0.60;;;10.50;99.90;;;;;;4992165;28;20214;-76
2021/10/04 02:09:37;;;;;;;0.60;0.60;;;10.60;99.90;;;;;;4991653;28;20210;-77
2021/10/04 02:12:03;;;;;;;0.60;0.60;;;10.50;99.90;;;;;;4991034;28;20218;-77
2021/10/04 02:14:28;;;;;;;0.60;0.60;;;10.50;99.90;;;;;;4991804;28;20721;-76
2021/10/04 02:16:54;;;;;;;0.60;0.60;;;10.50;99.90;;;;;;4990586;28;20230;-76
2021/10/04 02:19:19;;;;;;;0.60;0.60;;;10.50;99.90;;;;;;4990181;28;20200;-76
2021/10/04 02:21:45;;;;;;;0.60;0.60;;;10.50;99.90;;;;;;4992844;28;20191;-76
2021/10/04 02:24:12;;;;;;;0.60;0.60;;;10.50;99.90;;;;;;4996551;28;20739;-76
2021/10/04 02:26:39;;;;;;;0.60;0.60;;;10.40;99.90;;;;;;4994825;28;20825;-76
2021/10/04 02:29:05;;;;;;;0.50;0.50;;;10.40;99.90;;;;;;4994949;28;20215;-76
2021/10/04 02:31:30;;;;;;;0.50;0.50;;;10.40;99.90;;;;;;4993766;28;20200;-76
2021/10/04 02:33:56;;;;;;;0.60;0.60;;;10.40;99.90;;;;;;4993031;28;20690;-76
2021/10/04 02:36:24;;;;;;;0.60;0.60;;;10.40;99.90;;;;;;4994164;28;20199;-76
2021/10/04 02:38:51;;;;;;;0.60;0.60;;;10.30;99.90;;;;;;4995726;28;20538;-76
2021/10/04 02:41:17;;;;;;;0.70;0.70;;;10.30;99.90;;;;;;4994418;28;20222;-76
2021/10/04 02:43:43;;;;;;;0.60;0.60;;;10.30;99.90;;;;;;4994392;28;20207;-75
2021/10/04 02:46:09;;;;;;;0.50;0.50;;;10.30;99.90;;;;;;4996970;28;20199;-76
2021/10/04 02:48:35;;;;;;;0.55;0.55;;;10.30;99.90;;;;;;4995288;28;20213;-76
2021/10/04 02:51:00;;;;;;;0.68;0.68;;;10.30;99.90;;;;;;4995554;28;20217;-76
2021/10/04 02:53:26;;;;;;;0.50;0.50;;;10.30;99.90;;;;;;4997956;28;20211;-76
2021/10/04 02:55:52;;;;;;;0.70;0.70;;;10.30;99.90;;;;;;5004256;28;20212;-76
2021/10/04 02:58:18;;;;;;;0.50;0.50;;;10.20;99.90;;;;;;4995857;28;20204;-76
2021/10/04 03:00:44;;;;;;;0.50;0.50;;;10.20;99.90;;;;;;4995958;28;20231;-76
2021/10/04 03:03:10;;;;;;;0.50;0.50;;;10.20;99.90;;;;;;5015799;28;20222;-76
2021/10/04 03:05:36;;;;;;;0.60;0.60;;;10.20;99.90;;;;;;5000749;28;20258;-76
2021/10/04 03:08:03;;;;;;;0.60;0.60;;;10.20;99.90;;;;;;4996357;28;20204;-76
2021/10/04 03:10:30;;;;;;;0.38;0.38;;;10.10;99.90;;;;;;4997714;28;20214;-76
2021/10/04 03:12:56;;;;;;;0.60;0.60;;;10.10;99.90;;;;;;4992869;28;20571;-75
2021/10/04 03:15:21;;;;;;;0.50;0.50;;;10.10;99.90;;;;;;4995420;28;20208;-76
2021/10/04 03:17:47;;;;;;;0.60;0.60;;;10.10;99.90;;;;;;4993660;28;20204;-75
2021/10/04 03:20:13;;;;;;;0.65;0.65;;;10.00;99.90;;;;;;4995095;28;20211;-76
2021/10/04 03:22:38;;;;;;;0.60;0.60;;;9.90;99.90;;;;;;4992048;28;20577;-76
2021/10/04 03:25:06;;;;;;;0.60;0.60;;;9.90;99.90;;;;;;4993531;28;20729;-75
2021/10/04 03:27:32;;;;;;;0.50;0.50;;;9.80;99.90;;;;;;4992496;28;20206;-77
2021/10/04 03:29:58;;;;;;;0.50;0.50;;;9.80;99.90;;;;;;4994855;28;20196;-75
2021/10/04 03:32:24;;;;;;;0.60;0.60;;;9.80;99.90;;;;;;4994907;28;20382;-76
2021/10/04 03:34:49;;;;;;;0.60;0.60;;;9.80;99.90;;;;;;4992954;28;20293;-76
2021/10/04 03:37:16;;;;;;;1.02;0.77;;;9.70;99.90;;;;;;4992356;28;20739;-76
2021/10/04 03:39:42;;;;;;;0.82;0.82;;;9.70;99.90;;;;;;5009966;28;20663;-76
2021/10/04 03:42:08;;;;;;;0.70;0.70;;;9.60;99.90;;;;;;4994627;28;20269;-75
2021/10/04 03:44:34;;;;;;;0.60;0.60;;;9.60;99.90;;;;;;4993468;28;20762;-75
2021/10/04 03:47:00;;;;;;;0.60;0.60;;;9.60;99.90;;;;;;4994856;28;20266;-76
2021/10/04 03:49:25;;;;;;;0.90;0.90;;;9.50;99.90;;;;;;4995038;28;20253;-76
2021/10/04 03:51:52;;;;;;;0.57;0.57;;;9.50;99.90;;;;;;4994528;28;20282;-76
2021/10/04 03:54:17;;;;;;;0.50;0.50;;;9.50;99.90;;;;;;4993192;28;20207;-76
2021/10/04 03:56:43;;;;;;;0.60;0.60;;;9.50;99.90;;;;;;4992029;28;20254;-76
2021/10/04 03:59:09;;;;;;;0.60;0.60;;;9.50;99.90;;;;;;4997188;28;20286;-76
2021/10/04 04:01:35;;;;;;;0.60;0.60;;;9.40;99.90;;;;;;4993778;28;20203;-76
2021/10/04 04:04:01;;;;;;;0.50;0.50;;;9.40;99.90;;;;;;4992677;28;20301;-76
2021/10/04 04:06:27;;;;;;;0.98;0.98;;;9.30;99.90;;;;;;4992490;28;20725;-76
2021/10/04 04:08:52;;;;;;;0.60;0.60;;;9.30;99.90;;;;;;4994190;28;20211;-76
2021/10/04 04:11:18;;;;;;;0.60;0.60;;;9.20;99.90;;;;;;4991215;28;20215;-76
2021/10/04 04:13:44;;;;;;;0.52;0.52;;;9.20;99.90;;;;;;4993727;28;20615;-76
2021/10/04 04:16:10;;;;;;;0.63;0.63;;;9.20;99.90;;;;;;4992429;28;20207;-76
2021/10/04 04:18:36;;;;;;;0.50;0.50;;;9.20;99.90;;;;;;4992139;28;20203;-76
2021/10/04 04:21:01;;;;;;;0.65;0.65;;;9.30;99.90;;;;;;4993887;28;20195;-76
2021/10/04 04:23:27;;;;;;;0.50;0.50;;;9.30;99.90;;;;;;4992173;28;20206;-75
2021/10/04 04:25:53;;;;;;;0.70;0.70;;;9.30;99.90;;;;;;4993416;28;20200;-76
2021/10/04 04:28:19;;;;;;;0.40;0.40;;;9.30;99.90;;;;;;4992374;28;20208;-76
2021/10/04 04:30:45;;;;;;;0.50;0.50;;;9.30;99.90;;;;;;4992109;28;20287;-75
2021/10/04 04:33:11;;;;;;;0.70;0.70;;;9.30;99.90;;;;;;4993775;28;20333;-75
2021/10/04 04:35:36;;;;;;;0.50;0.50;;;9.30;99.90;;;;;;4992249;28;20219;-75
2021/10/04 04:38:02;;;;;;;0.57;0.57;;;9.40;99.90;;;;;;4992018;28;20231;-75
2021/10/04 04:40:28;;;;;;;0.50;0.50;;;9.60;99.90;;;;;;4992086;28;20294;-76
2021/10/04 04:42:54;;;;;;;0.50;0.50;;;9.60;99.90;;;;;;4992346;28;20247;-76
2021/10/04 04:45:20;;;;;;;0.60;0.60;;;9.70;99.90;;;;;;4990856;28;20208;-75
2021/10/04 04:47:47;;;;;;;0.50;0.50;;;9.80;99.90;;;;;;4993454;28;20211;-76
2021/10/04 04:50:14;;;;;;;0.50;0.50;;;9.80;99.90;;;;;;4993850;28;20226;-75
2021/10/04 04:52:40;;;;;;;0.60;0.60;;;9.90;99.90;;;;;;4991874;28;20235;-76
2021/10/04 04:55:06;;;;;;;0.50;0.50;;;10.00;99.90;;;;;;4993881;28;20262;-76
2021/10/04 04:57:32;;;;;;;0.50;0.50;;;10.00;99.90;;;;;;4993110;28;20226;-76
2021/10/04 04:59:58;;;;;;;0.40;0.40;;;10.00;99.90;;;;;;4991050;28;20208;-76
2021/10/04 05:02:25;;;;;;;0.50;0.50;;;10.10;99.90;;;;;;4990645;28;20738;-77
2021/10/04 05:04:51;;;;;;;0.50;0.50;;;10.20;99.90;;;;;;4989688;28;20227;-75
2021/10/04 05:07:16;;;;;;;0.60;0.60;;;10.30;99.90;;;;;;4977293;28;20675;-76
2021/10/04 05:09:42;;;;;;;0.43;0.43;;;10.40;99.90;;;;;;4991969;28;20211;-76
2021/10/04 05:12:08;;;;;;;0.40;0.40;;;10.40;99.90;;;;;;4992020;28;20202;-75
2021/10/04 05:14:34;;;;;;;0.47;0.47;;;10.40;99.90;;;;;;4992323;28;20264;-74
2021/10/04 05:16:59;;;;;;;0.50;0.50;;;10.50;99.90;;;;;;4993172;28;20289;-75
2021/10/04 05:19:25;;;;;;;0.50;0.50;;;10.50;99.90;;;;;;4992789;28;20210;-76
2021/10/04 05:21:51;;;;;;;0.90;0.90;;;10.60;99.90;;;;;;4976153;28;20200;-76
2021/10/04 05:24:16;;;;;;;0.65;0.65;;;10.60;99.90;;;;;;4990964;28;20298;-77
2021/10/04 05:26:43;;;;;;;0.50;0.50;;;10.70;99.90;;;;;;5010632;28;20222;-77
2021/10/04 05:29:09;;;;;;;0.50;0.50;;;10.70;99.90;;;;;;4994213;28;20199;-76
2021/10/04 05:31:35;;;;;;;0.40;0.40;;;10.80;99.90;;;;;;4994627;28;20301;-75
2021/10/04 05:34:02;;;;;;;0.47;0.47;;;10.80;99.90;;;;;;4992612;28;20211;-77
2021/10/04 05:36:29;;;;;;;0.50;0.50;;;10.80;99.90;;;;;;4995685;28;20290;-78
2021/10/04 05:38:55;;;;;;;0.60;0.60;;;10.90;99.90;;;;;;4992012;28;20211;-77
2021/10/04 05:41:21;;;;;;;0.60;0.60;;;10.80;99.90;;;;;;4991839;28;20578;-76
2021/10/04 05:43:46;;;;;;;0.60;0.60;;;10.90;99.90;;;;;;4991414;28;20203;-78
2021/10/04 05:46:12;;;;;;;0.50;0.50;;;10.90;99.90;;;;;;4990127;28;20208;-78
2021/10/04 05:48:38;;;;;;;0.88;0.85;;;10.90;99.90;;;;;;4989515;28;20243;-77
2021/10/04 05:51:09;;;;;;;0.50;0.50;;;10.90;99.90;;;;;;4992960;28;20219;-76
2021/10/04 05:53:36;;;;;;;0.52;0.52;;;10.90;99.90;;;;;;4989870;28;20677;-76
2021/10/04 05:56:02;;;;;;;0.60;0.60;;;11.00;99.90;;;;;;4992553;28;20207;-77
2021/10/04 05:58:28;;;;;;;0.80;0.80;;;11.00;99.90;;;;;;4995997;28;20192;-78
2021/10/04 06:00:54;;;;;;;0.60;0.60;;;11.00;99.90;;;;;;4999731;28;20209;-76
2021/10/04 06:03:20;;;;;;;0.50;0.50;;;11.00;99.90;;;;;;4997375;28;20573;-76
2021/10/04 06:05:46;;;;;;;0.70;0.70;;;11.00;99.90;;;;;;4998963;28;20210;-76
2021/10/04 06:08:11;;;;;;;0.45;0.45;;;11.10;99.90;;;;;;4997856;28;20253;-76
2021/10/04 06:10:37;;;;;;;0.50;0.50;;;11.10;99.90;;;;;;5000859;28;20682;-75
2021/10/04 06:13:03;;;;;;;0.50;0.50;;;11.10;99.90;;;;;;5008536;28;20532;-77
2021/10/04 06:15:29;;;;;;;0.60;0.60;;;11.10;99.90;;;;;;5005273;28;20199;-76
2021/10/04 06:17:56;;;;;;;0.50;0.50;;;11.20;99.90;;;;;;4999588;28;20207;-76
2021/10/04 06:20:22;;;;;;;0.50;0.50;;;11.20;99.90;;;;;;4998316;28;20210;-76
2021/10/04 06:22:48;;;;;;;0.50;0.50;;;11.20;99.90;;;;;;4997983;28;20203;-76
2021/10/04 06:25:15;;;;;;;0.60;0.60;;;11.30;99.90;;;;;;4996176;28;20306;-77
2021/10/04 06:27:43;;;;;;;0.50;0.50;;;11.30;99.90;;;;;;5001169;28;20211;-76
2021/10/04 06:30:12;;;;;;;0.43;0.43;;;11.30;99.90;;;;;;4988072;28;20208;-76
2021/10/04 06:32:38;;;;;;;0.50;0.50;;;11.30;99.90;;;;;;4995599;28;20263;-77
2021/10/04 06:35:04;;;;;;;0.50;0.50;;;11.40;99.90;;;;;;5008239;28;20234;-77
2021/10/04 06:37:30;;;;;;;0.50;0.50;;;11.40;99.90;;;;;;5008664;28;20570;-77
2021/10/04 06:39:56;;;;;;;0.60;0.60;;;11.40;99.90;;;;;;5000294;28;20531;-76
2021/10/04 06:42:24;;;;;;;0.52;0.52;;;11.40;99.90;;;;;;4998263;28;20199;-76
2021/10/04 06:44:50;;;;;;;0.50;0.50;;;11.40;99.90;;;;;;5000985;28;20203;-76
2021/10/04 06:47:16;;;;;;;0.60;0.60;;;11.50;99.90;;;;;;5002762;28;20210;-77
2021/10/04 06:49:42;;;;;;;0.50;0.50;;;11.50;99.90;;;;;;5000022;28;20212;-77
2021/10/04 06:52:08;;;;;;;0.60;0.60;;;11.50;99.90;;;;;;4999009;28;20219;-77
2021/10/04 06:54:34;;;;;;;0.50;0.50;;;11.60;99.90;;;;;;4997980;28;20229;-77
2021/10/04 06:57:00;;;;;;;3.80;1.00;;;11.60;99.90;;;;;;4998116;28;20210;-75
2021/10/04 06:59:26;;;;;;;0.52;0.52;;;11.70;99.90;;;;;;5003532;28;20212;-77
2021/10/04 07:01:51;;;;;;;0.50;0.50;;;11.70;99.90;;;;;;5002681;28;20202;-75
2021/10/04 07:04:17;;;;;;;0.50;0.50;;;11.70;99.90;;;;;;5005069;28;20254;-76
2021/10/04 07:06:43;;;;;;;0.50;0.50;;;11.70;99.90;;;;;;5014491;28;20207;-76
2021/10/04 07:09:09;;;;;;;0.50;0.50;;;11.70;99.90;;;;;;4997181;28;20207;-76
2021/10/04 07:11:34;;;;;;;0.70;0.70;;;11.80;99.90;;;;;;4997720;28;20294;-76
2021/10/04 07:14:00;;;;;;;0.50;0.50;;;11.80;99.90;;;;;;4996568;28;20221;-76
2021/10/04 07:16:26;;;;;;;0.60;0.60;;;11.80;99.90;;;;;;4994088;28;20290;-77
2021/10/04 07:18:51;;;;;;;0.55;0.55;;;11.80;99.90;;;;;;4995617;28;20212;-76
2021/10/04 07:21:17;;;;;;;0.43;0.43;;;11.90;99.90;;;;;;4996702;28;20200;-77
2021/10/04 07:23:46;;;;;;;1.15;1.00;;;11.90;99.90;;;;;;4993576;28;20231;-75
2021/10/04 07:26:13;;;;;;;0.40;0.40;;;11.90;99.90;;;;;;4992059;28;20290;-76
2021/10/04 07:28:39;;;;;;;0.50;0.50;;;11.90;99.90;;;;;;4994806;28;20265;-77
2021/10/04 07:31:05;;;;;;;1.75;1.40;;;11.90;99.90;;;;;;4994615;28;20215;-77
2021/10/04 07:33:30;;;;;;;0.60;0.60;;;12.00;99.90;;;;;;4995849;28;20621;-77
2021/10/04 07:35:57;;;;;;;5.57;1.15;;;12.00;99.90;;;;;;5009718;28;20200;-76
2021/10/04 07:38:23;;;;;;;0.50;0.50;;;12.10;99.90;;;;;;5007296;28;20315;-76
2021/10/04 07:40:49;;;;;;;0.50;0.50;;;12.10;99.90;;;;;;4997310;28;20210;-76
2021/10/04 07:43:15;;;;;;;0.60;0.60;;;12.10;99.90;;;;;;4994865;28;20215;-77
2021/10/04 07:45:41;;;;;;;0.50;0.50;;;12.20;99.90;;;;;;4999476;28;20199;-76
2021/10/04 07:48:07;;;;;;;0.60;0.60;;;12.10;99.90;;;;;;4993870;28;20211;-76
2021/10/04 07:50:33;;;;;;;0.80;0.55;;;12.20;99.90;;;;;;4994937;28;20239;-76
2021/10/04 07:52:59;;;;;;;0.50;0.50;;;12.20;99.90;;;;;;4994325;28;20199;-76
2021/10/04 07:55:25;;;;;;;0.50;0.50;;;12.20;99.90;;;;;;4992007;28;20262;-76
2021/10/04 07:57:51;;;;;;;1.10;0.93;;;12.30;99.90;;;;;;4998257;28;20203;-74
2021/10/04 08:00:21;;;;;;;0.50;0.50;;;12.30;99.90;;;;;;4994859;28;20218;-75
2021/10/04 08:02:47;;;;;;;0.40;0.40;;;12.40;99.90;;;;;;4991751;28;20285;-76
2021/10/04 08:05:14;;;;;;;0.77;0.77;;;12.40;99.90;;;;;;4992923;28;20241;-77
2021/10/04 08:07:40;;;;;;;0.50;0.50;;;12.40;99.90;;;;;;4999245;28;20241;-77
2021/10/04 08:10:08;;;;;;;0.50;0.50;;;12.50;99.90;;;;;;5000529;28;20660;-77
2021/10/04 08:12:34;;;;;;;0.50;0.50;;;12.60;99.90;;;;;;5009022;28;20670;-77
2021/10/04 08:15:00;;;;;;;3.53;1.02;;;12.60;99.90;;;;;;5007791;28;20219;-76
2021/10/04 08:17:26;;;;;;;0.50;0.50;;;12.60;99.90;;;;;;5006657;28;20697;-76
2021/10/04 08:19:52;;;;;;;0.82;0.82;;;12.50;99.90;;;;;;4997823;28;20211;-75
2021/10/04 08:22:18;;;;;;;0.45;0.45;;;12.50;99.90;;;;;;4992423;28;20242;-76
2021/10/04 08:24:44;;;;;;;0.50;0.50;;;12.50;99.90;;;;;;4983899;28;20208;-76
2021/10/04 08:27:10;;;;;;;0.50;0.50;;;12.60;99.90;;;;;;4988079;28;20211;-76
2021/10/04 08:29:36;;;;;;;0.82;0.60;;;12.60;99.90;;;;;;4993686;28;20301;-76
2021/10/04 08:32:03;;;;;;;0.50;0.50;;;12.70;99.90;;;;;;4992414;28;20637;-76
2021/10/04 08:34:29;;;;;;;0.50;0.50;;;12.70;99.90;;;;;;4992068;28;20203;-76
2021/10/04 08:36:55;;;;;;;0.93;0.90;;;12.70;99.90;;;;;;4992551;28;20736;-76
2021/10/04 08:39:21;;;;;;;0.55;0.55;;;12.80;99.90;;;;;;4992409;28;20207;-76
2021/10/04 08:41:47;;;;;;;2.55;0.95;;;12.80;99.90;;;;;;4991021;28;20196;-75
2021/10/04 08:44:14;;;;;;;0.60;0.60;;;12.90;99.90;;;;;;4992453;28;20206;-75
2021/10/04 08:46:44;;;;;;;0.55;0.55;;;12.90;99.90;;;;;;4991285;28;20226;-75
2021/10/04 08:49:11;;;;;;;0.50;0.50;;;13.00;99.90;;;;;;4975782;28;20196;-74
2021/10/04 08:51:37;;;;;;;0.50;0.50;;;12.90;99.90;;;;;;4993237;28;20211;-76
2021/10/04 08:54:05;;;;;;;0.50;0.50;;;12.90;99.90;;;;;;4992174;28;20242;-76
2021/10/04 08:56:31;;;;;;;0.60;0.60;;;12.90;99.90;;;;;;4992941;28;20365;-75
2021/10/04 08:58:57;;;;;;;0.60;0.60;;;12.90;99.90;;;;;;4993334;28;20204;-76
2021/10/04 09:01:23;;;;;;;0.40;0.40;;;12.90;99.90;;;;;;4993107;28;20207;-77
2021/10/04 09:03:53;;;;;;;1.15;1.02;;;13.00;99.90;;;;;;4991807;28;20234;-76
2021/10/04 09:06:31;;;;;;;0.60;0.60;;;13.00;99.90;;;;;;4990344;28;20212;-76
2021/10/04 09:09:03;;;;;;;0.50;0.50;;;13.00;99.90;;;;;;4991651;28;20214;-75
2021/10/04 09:11:33;;;;;;;0.50;0.50;;;13.00;99.90;;;;;;4991501;28;20253;-76
2021/10/04 09:14:19;;;;;;;0.77;0.77;;;13.00;99.90;;;;;;4993125;28;20314;-76
2021/10/04 09:17:06;;;;;;;0.52;0.52;;;13.00;99.90;;;;;;4991585;28;20290;-76
2021/10/04 09:19:44;;;;;;;1.38;1.08;;;12.90;99.90;;;;;;4991693;28;20230;-76
2021/10/04 09:22:12;;;;;;;0.70;0.68;;;12.90;99.90;;;;;;4994319;28;20574;-76
2021/10/04 09:24:59;;;;;;;0.52;0.50;;;12.80;99.90;;;;;;4991404;28;20207;-76
2021/10/04 09:27:32;;;;;;;0.70;0.70;;;12.80;99.90;;;;;;4990750;28;20207;-75
2021/10/04 09:30:19;;;;;;;10.18;2.10;;;12.70;99.90;;;;;;5007114;28;20677;-75
2021/10/04 09:32:47;;;;;;;1.58;1.48;;;12.70;99.90;;;;;;4983698;28;20232;-75
2021/10/04 09:35:25;;;;;;;0.40;0.40;;;12.70;99.90;;;;;;4991548;28;20200;-75
2021/10/04 09:37:59;;;;;;;0.70;0.70;;;12.70;99.90;;;;;;4975669;28;20203;-76
2021/10/04 09:40:48;;;;;;;0.85;0.80;;;12.80;99.90;;;;;;4992543;28;20194;-75
2021/10/04 09:43:29;;;;;;;0.60;0.60;;;12.80;99.90;;;;;;4994370;28;20572;-76
2021/10/04 09:46:08;;;;;;;0.50;0.50;;;12.80;99.90;;;;;;4984053;28;20203;-76
2021/10/04 09:48:35;;;;;;;1.33;1.23;;;12.80;99.90;;;;;;4992575;28;20269;-75
2021/10/04 09:51:15;;;;;;;1.55;1.38;;;12.90;99.90;;;;;;5000877;28;20215;-76
2021/10/04 09:53:40;;;;;;;0.50;0.50;;;12.90;99.90;;;;;;5007339;28;20207;-76
2021/10/04 09:56:06;;;;;;;25.02;1.10;;;12.90;99.90;;;;;;4994661;28;20291;-76
2021/10/04 09:58:32;;;;;;;0.77;0.60;;;13.00;99.90;;;;;;4994308;28;20209;-76
2021/10/04 10:01:01;;;;;;;0.50;0.50;;;13.00;99.90;;;;;;4991341;28;20291;-76
2021/10/04 10:03:38;;;;;;;0.50;0.50;;;13.00;99.90;;;;;;4991031;28;20315;-78
2021/10/04 10:06:05;;;;;;;0.70;0.70;;;13.00;99.90;;;;;;4993576;28;20714;-78
2021/10/04 10:08:31;;;;;;;2.65;2.28;;;13.10;99.90;;;;;;4995909;28;20203;-77
2021/10/04 10:11:00;;;;;;;0.50;0.50;;;13.30;99.90;;;;;;4993701;28;20286;-76
2021/10/04 10:13:29;;;;;;;1.05;0.98;;;13.40;99.90;;;;;;4993166;28;20555;-76
2021/10/04 10:16:20;;;;;;;0.50;0.50;;;13.50;99.90;;;;;;4991531;28;20215;-76
2021/10/04 10:19:02;;;;;;;0.50;0.50;;;13.60;99.90;;;;;;4976922;28;20613;-76
2021/10/04 10:21:32;;;;;;;0.40;0.40;;;13.50;99.90;;;;;;4981773;28;20192;-75
2021/10/04 10:24:11;;;;;;;0.40;0.40;;;13.50;99.90;;;;;;4999777;28;20209;-76
2021/10/04 10:26:39;;;;;;;1.05;0.95;;;13.50;99.90;;;;;;4995424;28;20607;-76
2021/10/04 10:29:17;;;;;;;0.50;0.50;;;13.40;99.90;;;;;;4992499;28;20591;-76
2021/10/04 10:31:57;;;;;;;0.98;0.98;;;13.40;99.90;;;;;;4998984;28;20270;-76
2021/10/04 10:34:29;;;;;;;0.88;0.88;;;13.30;99.90;;;;;;4996081;28;20386;-76
2021/10/04 10:37:08;;;;;;;9.27;1.80;;;13.30;99.90;;;;;;4997697;28;20789;-76
2021/10/04 10:39:42;;;;;;;1.42;1.08;;;13.30;99.90;;;;;;4999628;28;20196;-76
2021/10/04 10:42:16;;;;;;;0.50;0.50;;;13.40;99.90;;;;;;5000738;28;20539;-76
2021/10/04 10:44:57;;;;;;;0.50;0.50;;;13.40;99.90;;;;;;5000121;28;20218;-75
2021/10/04 10:47:35;;;;;;;0.50;0.50;;;13.40;99.90;;;;;;5001825;28;20203;-76
2021/10/04 10:50:15;;;;;;;0.50;0.50;;;13.50;99.90;;;;;;5011251;28;20549;-76
2021/10/04 10:52:45;;;;;;;1.17;0.65;;;13.50;99.90;;;;;;5011623;28;20258;-76
2021/10/04 10:55:19;;;;;;;0.50;0.50;;;13.40;99.90;;;;;;4995156;28;20563;-77
2021/10/04 10:58:05;;;;;;;0.90;0.90;;;13.50;99.90;;;;;;5022023;28;20203;-76
2021/10/04 11:00:38;;;;;;;1.08;0.98;;;13.60;99.90;;;;;;5011094;28;20215;-75
2021/10/04 11:03:11;;;;;;;0.50;0.50;;;13.60;99.90;;;;;;5034804;28;20223;-77
2021/10/04 11:05:43;;;;;;;0.55;0.55;;;13.70;99.90;;;;;;5008853;28;20710;-75
2021/10/04 11:08:19;;;;;;;0.70;0.70;;;13.70;99.90;;;;;;5007572;28;20262;-76
2021/10/04 11:10:53;;;;;;;0.52;0.52;;;13.80;99.90;;;;;;5010622;28;20734;-75
2021/10/04 11:13:29;;;;;;;1.67;0.88;;;13.80;99.90;;;;;;5004899;28;20233;-76
2021/10/04 11:15:57;;;;;;;0.50;0.50;;;14.10;99.90;;;;;;5009818;28;20191;-76
2021/10/04 11:18:24;;;;;;;5.28;1.35;;;14.50;99.90;;;;;;5007318;28;20644;-75
2021/10/04 11:21:05;;;;;;;0.40;0.40;;;14.70;99.90;;;;;;5002722;28;20687;-76
2021/10/04 11:23:31;;;;;;;0.60;0.60;;;14.70;99.90;;;;;;5006158;28;20215;-76
2021/10/04 11:25:57;;;;;;;0.85;0.75;;;14.40;99.90;;;;;;5012862;28;20196;-76
2021/10/04 11:28:32;;;;;;;0.50;0.50;;;14.20;99.90;;;;;;5006203;28;20208;-76
2021/10/04 11:31:09;;;;;;;0.40;0.40;;;14.10;99.90;;;;;;5004372;28;20217;-77
2021/10/04 11:33:39;;;;;;;0.50;0.50;;;14.00;99.90;;;;;;5000800;28;20215;-76
2021/10/04 11:36:06;;;;;;;8.38;1.60;;;13.90;99.90;;;;;;4995308;28;20222;-76
2021/10/04 11:38:35;;;;;;;0.40;0.40;;;13.90;99.90;;;;;;4995126;28;20222;-76
2021/10/04 11:41:01;;;;;;;0.50;0.50;;;13.90;99.90;;;;;;4995710;28;20192;-77
2021/10/04 11:43:30;;;;;;;0.93;0.93;;;13.90;99.90;;;;;;4994847;28;20211;-76
2021/10/04 11:45:56;;;;;;;0.60;0.60;;;14.10;99.90;;;;;;4994129;28;20214;-76
2021/10/04 11:48:31;;;;;;;0.70;0.70;;;14.20;99.90;;;;;;4992701;28;20207;-76
2021/10/04 11:50:57;;;;;;;0.50;0.50;;;14.20;99.90;;;;;;4994944;28;20213;-76
2021/10/04 11:53:24;;;;;;;0.60;0.60;;;14.40;99.90;;;;;;4994499;28;20203;-76
2021/10/04 11:55:57;;;;;;;0.52;0.52;;;14.40;99.90;;;;;;4992647;28;20199;-77
2021/10/04 11:58:22;;;;;;;0.88;0.88;;;14.40;99.90;;;;;;4993950;28;20230;-76
2021/10/04 12:00:49;;;;;;;0.60;0.60;;;14.30;99.90;;;;;;4992499;28;20894;-75
2021/10/04 12:03:29;;;;;;;0.50;0.50;;;14.30;99.90;;;;;;4994333;28;20203;-76
2021/10/04 12:05:57;;;;;;;1.00;0.93;;;14.20;99.90;;;;;;4995290;28;20219;-76
2021/10/04 12:08:23;;;;;;;0.70;0.70;;;14.20;99.90;;;;;;4997763;28;20215;-77
2021/10/04 12:10:57;;;;;;;0.63;0.60;;;14.20;99.90;;;;;;4994283;28;20261;-76
2021/10/04 12:13:29;;;;;;;0.57;0.57;;;14.20;99.90;;;;;;4993711;28;20225;-76
2021/10/04 12:16:04;;;;;;;0.47;0.47;;;14.10;99.90;;;;;;4994028;28;20294;-76
2021/10/04 12:18:32;;;;;;;0.50;0.50;;;14.00;99.90;;;;;;4992564;28;20686;-76
2021/10/04 12:21:23;;;;;;;2.58;0.75;;;13.90;99.90;;;;;;4994159;28;20282;-76
2021/10/04 12:24:07;;;;;;;1.15;1.05;;;13.90;99.90;;;;;;4992553;28;20218;-76
2021/10/04 12:26:53;;;;;;;1.50;1.40;;;14.00;99.90;;;;;;4992175;28;20203;-76
2021/10/04 12:29:30;;;;;;;0.70;0.70;;;14.10;99.90;;;;;;4993531;28;20211;-75
2021/10/04 12:31:58;;;;;;;1.52;1.20;;;14.10;99.90;;;;;;4992413;28;20199;-76
2021/10/04 12:34:25;;;;;;;6.72;3.40;;;14.20;99.90;;;;;;4990846;28;20246;-76
2021/10/04 12:36:53;;;;;;;4.72;2.47;;;14.20;99.90;;;;;;4991137;28;20199;-76
2021/10/04 12:39:19;;;;;;;1.10;0.70;;;14.20;99.90;;;;;;4992275;28;20199;-76
2021/10/04 12:41:48;;;;;;;1.35;0.73;;;14.20;99.90;;;;;;4992292;28;20726;-76
2021/10/04 12:44:19;;;;;;;0.50;0.50;;;14.30;99.90;;;;;;4993840;28;20215;-76
2021/10/04 12:47:12;;;;;;;0.95;0.93;;;14.30;99.90;;;;;;4993514;28;20217;-76
2021/10/04 12:49:39;;;;;;;0.52;0.52;;;14.30;99.90;;;;;;4991369;28;20203;-76
2021/10/04 12:52:18;;;;;;;0.60;0.60;;;14.40;99.90;;;;;;4992276;28;20203;-76